sensor_id;sensor_type;location;lat;lon;timestamp;temperature;humidity
64939;DHT22;51453;47.738;7.420;2022-09-25T00:00:23;11.50;99.90
64939;DHT22;51453;47.738;7.420;2022-09-25T00:02:49;11.50;99.90
64939;DHT22;51453;47.738;7.420;2022-09-25T00:05:14;11.60;99.90
64939;DHT22;51453;47.738;7.420;2022-09-25T00:07:40;11.60;99.90
64939;DHT22;51453;47.738;7.420;2022-09-25T00:10:07;11.60;99.90
64939;DHT22;51453;47.738;7.420;2022-09-25T00:12:33;11.60;99.90
64939;DHT22;51453;47.738;7.420;2022-09-25T00:15:00;11.50;99.90
64939;DHT22;51453;47.738;7.420;2022-09-25T00:17:26;11.60;99.90
64939;DHT22;51453;47.738;7.420;2022-09-25T00:19:52;11.60;99.90
64939;DHT22;51453;47.738;7.420;2022-09-25T00:22:19;11.50;99.90
64939;DHT22;51453;47.738;7.420;2022-09-25T00:24:46;11.50;99.90
64939;DHT22;51453;47.738;7.420;2022-09-25T00:27:12;11.50;99.90
64939;DHT22;51453;47.738;7.420;2022-09-25T00:29:38;11.60;99.90
64939;DHT22;51453;47.738;7.420;2022-09-25T00:32:06;11.60;99.90
64939;DHT22;51453;47.738;7.420;2022-09-25T00:34:32;11.60;99.90
64939;DHT22;51453;47.738;7.420;2022-09-25T00:36:57;11.60;99.90
64939;DHT22;51453;47.738;7.420;2022-09-25T00:39:23;11.60;99.90
64939;DHT22;51453;47.738;7.420;2022-09-25T00:41:50;11.70;99.90
64939;DHT22;51453;47.738;7.420;2022-09-25T00:47:07;11.70;99.90
64939;DHT22;51453;47.738;7.420;2022-09-25T00:49:34;11.70;99.90
64939;DHT22;51453;47.738;7.420;2022-09-25T00:52:06;11.70;99.90
64939;DHT22;51453;47.738;7.420;2022-09-25T00:54:41;11.70;99.90
64939;DHT22;51453;47.738;7.420;2022-09-25T00:57:14;11.70;99.90
64939;DHT22;51453;47.738;7.420;2022-09-25T00:59:45;11.70;99.90
64939;DHT22;51453;47.738;7.420;2022-09-25T01:02:18;11.70;99.90
64939;DHT22;51453;47.738;7.420;2022-09-25T01:04:46;11.70;99.90
64939;DHT22;51453;47.738;7.420;2022-09-25T01:07:12;11.70;99.90
64939;DHT22;51453;47.738;7.420;2022-09-25T01:09:39;11.70;99.90
64939;DHT22;51453;47.738;7.420;2022-09-25T01:12:05;11.60;99.90
64939;DHT22;51453;47.738;7.420;2022-09-25T01:14:32;11.60;99.90
64939;DHT22;51453;47.738;7.420;2022-09-25T01:17:05;11.50;99.90
64939;DHT22;51453;47.738;7.420;2022-09-25T01:31:53;11.50;99.90
64939;DHT22;51453;47.738;7.420;2022-09-25T01:34:25;11.50;99.90
64939;DHT22;51453;47.738;7.420;2022-09-25T01:37:02;11.50;99.90
64939;DHT22;51453;47.738;7.420;2022-09-25T01:39:45;11.50;99.90
64939;DHT22;51453;47.738;7.420;2022-09-25T01:42:18;11.50;99.90
64939;DHT22;51453;47.738;7.420;2022-09-25T01:44:56;11.50;99.90
64939;DHT22;51453;47.738;7.420;2022-09-25T01:47:26;11.50;99.90
64939;DHT22;51453;47.738;7.420;2022-09-25T01:49:59;11.50;99.90
64939;DHT22;51453;47.738;7.420;2022-09-25T01:52:31;11.50;99.90
64939;DHT22;51453;47.738;7.420;2022-09-25T01:55:20;11.50;99.90
64939;DHT22;51453;47.738;7.420;2022-09-25T01:57:56;11.50;99.90
64939;DHT22;51453;47.738;7.420;2022-09-25T02:00:25;11.40;99.90
64939;DHT22;51453;47.738;7.420;2022-09-25T02:02:56;11.40;99.90
64939;DHT22;51453;47.738;7.420;2022-09-25T02:05:35;11.40;99.90
64939;DHT22;51453;47.738;7.420;2022-09-25T02:08:07;11.40;99.90
64939;DHT22;51453;47.738;7.420;2022-09-25T02:10:45;11.40;99.90
64939;DHT22;51453;47.738;7.420;2022-09-25T02:13:16;11.50;99.90
64939;DHT22;51453;47.738;7.420;2022-09-25T02:15:55;11.50;99.90
64939;DHT22;51453;47.738;7.420;2022-09-25T02:18:21;11.40;99.90
64939;DHT22;51453;47.738;7.420;2022-09-25T02:26:37;11.40;99.90
64939;DHT22;51453;47.738;7.420;2022-09-25T02:29:03;11.50;99.90
64939;DHT22;51453;47.738;7.420;2022-09-25T02:31:35;11.50;99.90
64939;DHT22;51453;47.738;7.420;2022-09-25T02:34:01;11.50;99.90
64939;DHT22;51453;47.738;7.420;2022-09-25T02:36:28;11.50;99.90
64939;DHT22;51453;47.738;7.420;2022-09-25T02:38:54;11.50;99.90
64939;DHT22;51453;47.738;7.420;2022-09-25T02:52:11;11.40;99.90
64939;DHT22;51453;47.738;7.420;2022-09-25T02:54:47;11.30;99.90
64939;DHT22;51453;47.738;7.420;2022-09-25T02:57:22;11.30;99.90
64939;DHT22;51453;47.738;7.420;2022-09-25T02:59:57;11.40;99.90
64939;DHT22;51453;47.738;7.420;2022-09-25T03:02:26;11.40;99.90
64939;DHT22;51453;47.738;7.420;2022-09-25T03:04:53;11.30;99.90
64939;DHT22;51453;47.738;7.420;2022-09-25T03:07:20;11.30;99.90
64939;DHT22;51453;47.738;7.420;2022-09-25T03:09:47;11.30;99.90
64939;DHT22;51453;47.738;7.420;2022-09-25T03:12:15;11.30;99.90
64939;DHT22;51453;47.738;7.420;2022-09-25T03:14:40;11.30;99.90
64939;DHT22;51453;47.738;7.420;2022-09-25T03:17:07;11.30;99.90
64939;DHT22;51453;47.738;7.420;2022-09-25T03:19:35;11.30;99.90
64939;DHT22;51453;47.738;7.420;2022-09-25T03:22:01;11.20;99.90
64939;DHT22;51453;47.738;7.420;2022-09-25T03:24:27;11.30;99.90
64939;DHT22;51453;47.738;7.420;2022-09-25T03:26:53;11.30;99.90
64939;DHT22;51453;47.738;7.420;2022-09-25T03:29:20;11.30;99.90
64939;DHT22;51453;47.738;7.420;2022-09-25T03:31:46;11.30;99.90
64939;DHT22;51453;47.738;7.420;2022-09-25T03:34:15;11.20;99.90
64939;DHT22;51453;47.738;7.420;2022-09-25T03:36:41;11.20;99.90
64939;DHT22;51453;47.738;7.420;2022-09-25T03:39:07;11.20;99.90
64939;DHT22;51453;47.738;7.420;2022-09-25T03:41:36;11.30;99.90
64939;DHT22;51453;47.738;7.420;2022-09-25T03:44:03;11.30;99.90
64939;DHT22;51453;47.738;7.420;2022-09-25T03:46:32;11.20;99.90
64939;DHT22;51453;47.738;7.420;2022-09-25T03:48:59;11.20;99.90
64939;DHT22;51453;47.738;7.420;2022-09-25T03:51:26;11.30;99.90
64939;DHT22;51453;47.738;7.420;2022-09-25T03:53:53;11.30;99.90
64939;DHT22;51453;47.738;7.420;2022-09-25T03:56:21;11.30;99.90
64939;DHT22;51453;47.738;7.420;2022-09-25T03:58:48;11.30;99.90
64939;DHT22;51453;47.738;7.420;2022-09-25T04:01:15;11.30;99.90
64939;DHT22;51453;47.738;7.420;2022-09-25T04:03:41;11.30;99.90
64939;DHT22;51453;47.738;7.420;2022-09-25T04:06:13;11.40;99.90
64939;DHT22;51453;47.738;7.420;2022-09-25T04:08:39;11.40;99.90
64939;DHT22;51453;47.738;7.420;2022-09-25T04:11:05;11.40;99.90
64939;DHT22;51453;47.738;7.420;2022-09-25T04:13:33;11.40;99.90
64939;DHT22;51453;47.738;7.420;2022-09-25T04:16:00;11.50;99.90
64939;DHT22;51453;47.738;7.420;2022-09-25T04:18:27;11.40;99.90
64939;DHT22;51453;47.738;7.420;2022-09-25T04:21:04;11.40;99.90
64939;DHT22;51453;47.738;7.420;2022-09-25T04:23:31;11.40;99.90
64939;DHT22;51453;47.738;7.420;2022-09-25T04:25:57;11.40;99.90
64939;DHT22;51453;47.738;7.420;2022-09-25T04:28:23;11.40;99.90
64939;DHT22;51453;47.738;7.420;2022-09-25T04:30:49;11.40;99.90
64939;DHT22;51453;47.738;7.420;2022-09-25T04:33:16;11.40;99.90
64939;DHT22;51453;47.738;7.420;2022-09-25T04:36:00;11.40;99.90
64939;DHT22;51453;47.738;7.420;2022-09-25T04:38:26;11.40;99.90
64939;DHT22;51453;47.738;7.420;2022-09-25T04:40:52;11.50;99.90
64939;DHT22;51453;47.738;7.420;2022-09-25T04:43:18;11.50;99.90
64939;DHT22;51453;47.738;7.420;2022-09-25T04:45:43;11.50;99.90
64939;DHT22;51453;47.738;7.420;2022-09-25T04:48:11;11.50;99.90
64939;DHT22;51453;47.738;7.420;2022-09-25T04:50:37;11.50;99.90
64939;DHT22;51453;47.738;7.420;2022-09-25T04:53:03;11.50;99.90
64939;DHT22;51453;47.738;7.420;2022-09-25T04:55:29;11.40;99.90
64939;DHT22;51453;47.738;7.420;2022-09-25T04:57:59;11.40;99.90
64939;DHT22;51453;47.738;7.420;2022-09-25T05:00:30;11.50;99.90
64939;DHT22;51453;47.738;7.420;2022-09-25T05:02:57;11.40;99.90
64939;DHT22;51453;47.738;7.420;2022-09-25T05:05:23;11.40;99.90
64939;DHT22;51453;47.738;7.420;2022-09-25T05:07:59;11.40;99.90
64939;DHT22;51453;47.738;7.420;2022-09-25T05:10:27;11.40;99.90
64939;DHT22;51453;47.738;7.420;2022-09-25T05:12:55;11.50;99.90
64939;DHT22;51453;47.738;7.420;2022-09-25T05:15:21;11.50;99.90
64939;DHT22;51453;47.738;7.420;2022-09-25T05:17:46;11.50;99.90
64939;DHT22;51453;47.738;7.420;2022-09-25T05:20:12;11.50;99.90
64939;DHT22;51453;47.738;7.420;2022-09-25T05:22:38;11.50;99.90
64939;DHT22;51453;47.738;7.420;2022-09-25T05:25:04;11.50;99.90
64939;DHT22;51453;47.738;7.420;2022-09-25T05:27:33;11.50;99.90
64939;DHT22;51453;47.738;7.420;2022-09-25T05:29:59;11.50;99.90
64939;DHT22;51453;47.738;7.420;2022-09-25T05:32:25;11.60;99.90
64939;DHT22;51453;47.738;7.420;2022-09-25T05:34:51;11.60;99.90
64939;DHT22;51453;47.738;7.420;2022-09-25T05:37:16;11.50;99.90
64939;DHT22;51453;47.738;7.420;2022-09-25T05:39:42;11.50;99.90
64939;DHT22;51453;47.738;7.420;2022-09-25T05:42:07;11.60;99.90
64939;DHT22;51453;47.738;7.420;2022-09-25T05:44:33;11.60;99.90
64939;DHT22;51453;47.738;7.420;2022-09-25T05:46:59;11.70;99.90
64939;DHT22;51453;47.738;7.420;2022-09-25T05:49:24;11.70;99.90
64939;DHT22;51453;47.738;7.420;2022-09-25T05:51:50;11.70;99.90
64939;DHT22;51453;47.738;7.420;2022-09-25T05:54:16;11.70;99.90
64939;DHT22;51453;47.738;7.420;2022-09-25T05:56:41;11.60;99.90
64939;DHT22;51453;47.738;7.420;2022-09-25T05:59:07;11.60;99.90
64939;DHT22;51453;47.738;7.420;2022-09-25T06:01:33;11.70;99.90
64939;DHT22;51453;47.738;7.420;2022-09-25T06:03:59;11.80;99.90
64939;DHT22;51453;47.738;7.420;2022-09-25T06:06:25;11.80;99.90
64939;DHT22;51453;47.738;7.420;2022-09-25T06:08:52;11.80;99.90
64939;DHT22;51453;47.738;7.420;2022-09-25T06:11:18;11.80;99.90
64939;DHT22;51453;47.738;7.420;2022-09-25T06:13:44;11.90;99.90
64939;DHT22;51453;47.738;7.420;2022-09-25T06:16:14;12.10;99.90
64939;DHT22;51453;47.738;7.420;2022-09-25T06:18:43;12.10;99.90
64939;DHT22;51453;47.738;7.420;2022-09-25T06:21:10;12.10;99.90
64939;DHT22;51453;47.738;7.420;2022-09-25T06:23:36;12.20;99.90
64939;DHT22;51453;47.738;7.420;2022-09-25T06:26:04;12.20;99.90
64939;DHT22;51453;47.738;7.420;2022-09-25T06:28:30;12.30;99.90
64939;DHT22;51453;47.738;7.420;2022-09-25T06:30:59;12.30;99.90
64939;DHT22;51453;47.738;7.420;2022-09-25T06:33:25;12.40;99.90
64939;DHT22;51453;47.738;7.420;2022-09-25T06:35:50;12.40;99.90
64939;DHT22;51453;47.738;7.420;2022-09-25T06:38:16;12.40;99.90
64939;DHT22;51453;47.738;7.420;2022-09-25T06:40:42;12.40;99.90
64939;DHT22;51453;47.738;7.420;2022-09-25T06:43:15;12.50;99.90
64939;DHT22;51453;47.738;7.420;2022-09-25T06:45:41;12.40;99.90
64939;DHT22;51453;47.738;7.420;2022-09-25T06:48:12;12.40;99.90
64939;DHT22;51453;47.738;7.420;2022-09-25T06:53:14;12.50;99.90
64939;DHT22;51453;47.738;7.420;2022-09-25T06:55:40;12.50;99.90
64939;DHT22;51453;47.738;7.420;2022-09-25T06:58:09;12.60;99.90
64939;DHT22;51453;47.738;7.420;2022-09-25T07:00:34;12.70;99.90
64939;DHT22;51453;47.738;7.420;2022-09-25T07:03:00;12.70;99.90
64939;DHT22;51453;47.738;7.420;2022-09-25T07:05:46;12.80;99.90
64939;DHT22;51453;47.738;7.420;2022-09-25T07:08:13;12.70;99.90
64939;DHT22;51453;47.738;7.420;2022-09-25T07:10:51;12.80;99.90
64939;DHT22;51453;47.738;7.420;2022-09-25T07:13:18;12.70;99.90
64939;DHT22;51453;47.738;7.420;2022-09-25T07:15:55;12.70;99.90
64939;DHT22;51453;47.738;7.420;2022-09-25T07:18:22;12.70;99.90
64939;DHT22;51453;47.738;7.420;2022-09-25T07:20:49;12.70;99.90
64939;DHT22;51453;47.738;7.420;2022-09-25T07:23:17;12.70;99.90
64939;DHT22;51453;47.738;7.420;2022-09-25T07:25:44;12.70;99.90
64939;DHT22;51453;47.738;7.420;2022-09-25T07:28:11;12.80;99.90
64939;DHT22;51453;47.738;7.420;2022-09-25T07:30:41;12.80;99.90
64939;DHT22;51453;47.738;7.420;2022-09-25T07:33:07;12.90;99.90
64939;DHT22;51453;47.738;7.420;2022-09-25T07:35:33;13.00;99.90
64939;DHT22;51453;47.738;7.420;2022-09-25T07:37:59;13.10;99.90
64939;DHT22;51453;47.738;7.420;2022-09-25T07:40:25;13.10;99.90
64939;DHT22;51453;47.738;7.420;2022-09-25T07:42:57;13.10;99.90
64939;DHT22;51453;47.738;7.420;2022-09-25T07:45:23;13.30;99.90
64939;DHT22;51453;47.738;7.420;2022-09-25T07:47:49;13.50;99.90
64939;DHT22;51453;47.738;7.420;2022-09-25T07:50:15;13.70;99.90
64939;DHT22;51453;47.738;7.420;2022-09-25T07:52:40;13.70;99.90
64939;DHT22;51453;47.738;7.420;2022-09-25T07:55:06;13.80;99.90
64939;DHT22;51453;47.738;7.420;2022-09-25T07:57:32;13.80;99.90
64939;DHT22;51453;47.738;7.420;2022-09-25T07:59:58;13.90;99.90
64939;DHT22;51453;47.738;7.420;2022-09-25T08:02:24;13.90;99.90
64939;DHT22;51453;47.738;7.420;2022-09-25T08:04:49;14.00;99.90
64939;DHT22;51453;47.738;7.420;2022-09-25T08:07:15;14.10;99.90
64939;DHT22;51453;47.738;7.420;2022-09-25T08:09:41;14.10;99.90
64939;DHT22;51453;47.738;7.420;2022-09-25T08:12:09;14.00;99.90
64939;DHT22;51453;47.738;7.420;2022-09-25T08:14:35;14.00;99.90
64939;DHT22;51453;47.738;7.420;2022-09-25T08:17:01;14.00;99.90
64939;DHT22;51453;47.738;7.420;2022-09-25T08:19:27;14.00;99.90
64939;DHT22;51453;47.738;7.420;2022-09-25T08:21:52;14.00;99.90
64939;DHT22;51453;47.738;7.420;2022-09-25T08:24:18;14.00;99.90
64939;DHT22;51453;47.738;7.420;2022-09-25T08:26:45;14.10;99.90
64939;DHT22;51453;47.738;7.420;2022-09-25T08:29:11;14.20;99.90
64939;DHT22;51453;47.738;7.420;2022-09-25T08:31:37;14.30;99.90
64939;DHT22;51453;47.738;7.420;2022-09-25T08:34:02;14.40;99.90
64939;DHT22;51453;47.738;7.420;2022-09-25T08:36:28;14.50;99.90
64939;DHT22;51453;47.738;7.420;2022-09-25T08:38:54;14.60;99.90
64939;DHT22;51453;47.738;7.420;2022-09-25T08:41:41;14.60;99.90
64939;DHT22;51453;47.738;7.420;2022-09-25T08:44:36;14.60;99.90
64939;DHT22;51453;47.738;7.420;2022-09-25T08:52:34;14.60;99.90
64939;DHT22;51453;47.738;7.420;2022-09-25T08:55:00;14.70;99.90
64939;DHT22;51453;47.738;7.420;2022-09-25T08:57:35;14.80;99.90
64939;DHT22;51453;47.738;7.420;2022-09-25T09:00:22;15.00;99.90
64939;DHT22;51453;47.738;7.420;2022-09-25T09:02:54;15.10;99.90
64939;DHT22;51453;47.738;7.420;2022-09-25T09:05:27;15.20;99.90
64939;DHT22;51453;47.738;7.420;2022-09-25T09:10:40;15.30;99.90
64939;DHT22;51453;47.738;7.420;2022-09-25T09:13:27;15.40;99.90
64939;DHT22;51453;47.738;7.420;2022-09-25T09:16:05;15.40;99.90
64939;DHT22;51453;47.738;7.420;2022-09-25T09:18:37;15.60;99.90
64939;DHT22;51453;47.738;7.420;2022-09-25T09:21:40;15.60;99.90
64939;DHT22;51453;47.738;7.420;2022-09-25T09:24:32;15.70;99.90
64939;DHT22;51453;47.738;7.420;2022-09-25T09:35:32;15.90;99.90
64939;DHT22;51453;47.738;7.420;2022-09-25T09:41:09;16.10;99.90
64939;DHT22;51453;47.738;7.420;2022-09-25T09:49:17;16.10;99.90
64939;DHT22;51453;47.738;7.420;2022-09-25T09:54:28;16.10;99.90
64939;DHT22;51453;47.738;7.420;2022-09-25T09:57:00;16.00;99.90
64939;DHT22;51453;47.738;7.420;2022-09-25T09:59:45;15.90;99.90
64939;DHT22;51453;47.738;7.420;2022-09-25T10:04:52;15.70;99.90
64939;DHT22;51453;47.738;7.420;2022-09-25T10:07:21;15.80;99.90
64939;DHT22;51453;47.738;7.420;2022-09-25T10:09:52;15.70;99.90
64939;DHT22;51453;47.738;7.420;2022-09-25T10:12:31;15.80;99.90
64939;DHT22;51453;47.738;7.420;2022-09-25T10:15:01;15.90;99.90
64939;DHT22;51453;47.738;7.420;2022-09-25T10:17:29;16.00;99.90
64939;DHT22;51453;47.738;7.420;2022-09-25T10:20:15;16.30;99.90
64939;DHT22;51453;47.738;7.420;2022-09-25T10:22:44;16.30;99.90
64939;DHT22;51453;47.738;7.420;2022-09-25T10:25:11;16.50;99.90
64939;DHT22;51453;47.738;7.420;2022-09-25T10:27:39;16.70;99.90
64939;DHT22;51453;47.738;7.420;2022-09-25T10:30:18;16.80;99.90
64939;DHT22;51453;47.738;7.420;2022-09-25T10:32:45;17.10;99.90
64939;DHT22;51453;47.738;7.420;2022-09-25T10:35:28;17.30;99.90
64939;DHT22;51453;47.738;7.420;2022-09-25T10:38:13;17.50;99.90
64939;DHT22;51453;47.738;7.420;2022-09-25T10:40:41;17.50;99.90
64939;DHT22;51453;47.738;7.420;2022-09-25T10:43:20;17.70;99.90
64939;DHT22;51453;47.738;7.420;2022-09-25T10:46:03;17.90;99.90
64939;DHT22;51453;47.738;7.420;2022-09-25T10:48:33;17.90;99.90
64939;DHT22;51453;47.738;7.420;2022-09-25T10:51:17;18.00;99.90
64939;DHT22;51453;47.738;7.420;2022-09-25T10:53:46;18.00;99.90
64939;DHT22;51453;47.738;7.420;2022-09-25T10:56:19;18.00;99.90
64939;DHT22;51453;47.738;7.420;2022-09-25T11:01:15;17.90;99.90
64939;DHT22;51453;47.738;7.420;2022-09-25T11:03:51;17.90;99.90
64939;DHT22;51453;47.738;7.420;2022-09-25T11:06:23;17.80;99.90
64939;DHT22;51453;47.738;7.420;2022-09-25T11:09:06;17.80;99.90
64939;DHT22;51453;47.738;7.420;2022-09-25T11:11:34;17.90;99.90
64939;DHT22;51453;47.738;7.420;2022-09-25T11:14:03;17.80;99.90
64939;DHT22;51453;47.738;7.420;2022-09-25T11:16:54;18.00;99.90
64939;DHT22;51453;47.738;7.420;2022-09-25T11:22:53;18.30;99.90
64939;DHT22;51453;47.738;7.420;2022-09-25T11:25:03;18.40;99.90
64939;DHT22;51453;47.738;7.420;2022-09-25T11:27:42;18.40;99.90
64939;DHT22;51453;47.738;7.420;2022-09-25T11:30:14;18.40;99.90
64939;DHT22;51453;47.738;7.420;2022-09-25T11:35:54;18.20;99.90
64939;DHT22;51453;47.738;7.420;2022-09-25T11:38:52;18.10;99.90
64939;DHT22;51453;47.738;7.420;2022-09-25T11:50:11;18.10;99.90
64939;DHT22;51453;47.738;7.420;2022-09-25T11:53:36;18.20;99.90
64939;DHT22;51453;47.738;7.420;2022-09-25T11:59:02;18.10;99.90
64939;DHT22;51453;47.738;7.420;2022-09-25T12:01:56;18.10;99.90
64939;DHT22;51453;47.738;7.420;2022-09-25T12:04:54;18.10;99.90
64939;DHT22;51453;47.738;7.420;2022-09-25T12:10:57;18.00;99.90
64939;DHT22;51453;47.738;7.420;2022-09-25T12:14:00;18.00;99.90
64939;DHT22;51453;47.738;7.420;2022-09-25T12:19:23;17.80;99.90
64939;DHT22;51453;47.738;7.420;2022-09-25T12:22:03;17.70;99.90
64939;DHT22;51453;47.738;7.420;2022-09-25T12:27:53;17.70;99.90
64939;DHT22;51453;47.738;7.420;2022-09-25T12:30:26;17.70;99.90
64939;DHT22;51453;47.738;7.420;2022-09-25T12:35:48;17.70;99.90
64939;DHT22;51453;47.738;7.420;2022-09-25T12:48:50;18.00;99.90
64939;DHT22;51453;47.738;7.420;2022-09-25T12:53:57;18.30;99.90
64939;DHT22;51453;47.738;7.420;2022-09-25T13:10:44;18.30;99.90
64939;DHT22;51453;47.738;7.420;2022-09-25T13:13:18;18.20;99.90
64939;DHT22;51453;47.738;7.420;2022-09-25T13:15:50;18.10;99.90
64939;DHT22;51453;47.738;7.420;2022-09-25T13:18:21;18.10;99.90
64939;DHT22;51453;47.738;7.420;2022-09-25T13:20:49;18.00;99.90
64939;DHT22;51453;47.738;7.420;2022-09-25T13:23:28;18.00;99.90
64939;DHT22;51453;47.738;7.420;2022-09-25T13:26:08;18.00;99.90
64939;DHT22;51453;47.738;7.420;2022-09-25T13:29:06;17.90;99.90
64939;DHT22;51453;47.738;7.420;2022-09-25T13:31:39;18.00;99.90
64939;DHT22;51453;47.738;7.420;2022-09-25T13:34:14;18.00;99.90
64939;DHT22;51453;47.738;7.420;2022-09-25T13:36:54;18.10;99.90
64939;DHT22;51453;47.738;7.420;2022-09-25T13:39:33;18.10;99.90
64939;DHT22;51453;47.738;7.420;2022-09-25T13:42:40;18.10;99.90
64939;DHT22;51453;47.738;7.420;2022-09-25T13:50:24;18.20;99.90
64939;DHT22;51453;47.738;7.420;2022-09-25T13:53:21;18.20;99.90
64939;DHT22;51453;47.738;7.420;2022-09-25T13:58:19;18.20;99.90
64939;DHT22;51453;47.738;7.420;2022-09-25T14:03:38;18.20;99.90
64939;DHT22;51453;47.738;7.420;2022-09-25T14:06:11;18.30;99.90
64939;DHT22;51453;47.738;7.420;2022-09-25T14:08:40;18.20;99.90
64939;DHT22;51453;47.738;7.420;2022-09-25T14:11:09;18.30;99.90
64939;DHT22;51453;47.738;7.420;2022-09-25T14:13:36;18.20;99.90
64939;DHT22;51453;47.738;7.420;2022-09-25T14:16:11;18.20;99.90
64939;DHT22;51453;47.738;7.420;2022-09-25T14:18:42;18.10;99.90
64939;DHT22;51453;47.738;7.420;2022-09-25T14:21:13;17.90;99.90
64939;DHT22;51453;47.738;7.420;2022-09-25T14:23:57;17.90;99.90
64939;DHT22;51453;47.738;7.420;2022-09-25T14:26:42;18.00;99.90
64939;DHT22;51453;47.738;7.420;2022-09-25T14:29:36;17.80;99.90
64939;DHT22;51453;47.738;7.420;2022-09-25T14:32:19;17.70;99.90
64939;DHT22;51453;47.738;7.420;2022-09-25T14:37:54;17.60;99.90
64939;DHT22;51453;47.738;7.420;2022-09-25T14:40:35;17.50;99.90
64939;DHT22;51453;47.738;7.420;2022-09-25T14:43:14;17.50;99.90
64939;DHT22;51453;47.738;7.420;2022-09-25T14:46:01;17.30;99.90
64939;DHT22;51453;47.738;7.420;2022-09-25T14:48:38;17.20;99.90
64939;DHT22;51453;47.738;7.420;2022-09-25T14:51:09;17.10;99.90
64939;DHT22;51453;47.738;7.420;2022-09-25T14:53:43;17.10;99.90
64939;DHT22;51453;47.738;7.420;2022-09-25T14:56:11;17.00;99.90
64939;DHT22;51453;47.738;7.420;2022-09-25T14:58:45;16.80;99.90
64939;DHT22;51453;47.738;7.420;2022-09-25T15:01:26;16.70;99.90
64939;DHT22;51453;47.738;7.420;2022-09-25T15:03:52;16.70;99.90
64939;DHT22;51453;47.738;7.420;2022-09-25T15:06:28;16.70;99.90
64939;DHT22;51453;47.738;7.420;2022-09-25T15:08:55;17.00;99.90
64939;DHT22;51453;47.738;7.420;2022-09-25T15:11:22;17.30;99.90
64939;DHT22;51453;47.738;7.420;2022-09-25T15:13:50;17.50;99.90
64939;DHT22;51453;47.738;7.420;2022-09-25T15:16:19;17.60;99.90
64939;DHT22;51453;47.738;7.420;2022-09-25T15:19:17;17.80;99.90
64939;DHT22;51453;47.738;7.420;2022-09-25T15:21:44;17.80;99.90
64939;DHT22;51453;47.738;7.420;2022-09-25T15:24:17;17.70;99.90
64939;DHT22;51453;47.738;7.420;2022-09-25T15:26:49;17.60;99.90
64939;DHT22;51453;47.738;7.420;2022-09-25T15:29:20;17.60;99.90
64939;DHT22;51453;47.738;7.420;2022-09-25T15:31:47;17.50;99.90
64939;DHT22;51453;47.738;7.420;2022-09-25T15:34:27;17.40;99.90
64939;DHT22;51453;47.738;7.420;2022-09-25T15:37:28;17.30;99.90
64939;DHT22;51453;47.738;7.420;2022-09-25T15:39:55;17.10;99.90
64939;DHT22;51453;47.738;7.420;2022-09-25T15:42:21;17.00;99.90
64939;DHT22;51453;47.738;7.420;2022-09-25T15:44:47;16.90;99.90
64939;DHT22;51453;47.738;7.420;2022-09-25T15:50:03;16.60;99.90
64939;DHT22;51453;47.738;7.420;2022-09-25T15:52:31;16.50;99.90
64939;DHT22;51453;47.738;7.420;2022-09-25T15:55:05;16.30;99.90
64939;DHT22;51453;47.738;7.420;2022-09-25T15:57:34;16.20;99.90
64939;DHT22;51453;47.738;7.420;2022-09-25T16:00:15;16.10;99.90
64939;DHT22;51453;47.738;7.420;2022-09-25T16:03:23;15.90;99.90
64939;DHT22;51453;47.738;7.420;2022-09-25T16:06:13;15.70;99.90
64939;DHT22;51453;47.738;7.420;2022-09-25T16:08:40;15.50;99.90
64939;DHT22;51453;47.738;7.420;2022-09-25T16:13:50;15.10;99.90
64939;DHT22;51453;47.738;7.420;2022-09-25T16:18:42;14.60;99.90
64939;DHT22;51453;47.738;7.420;2022-09-25T16:23:39;14.40;99.90
64939;DHT22;51453;47.738;7.420;2022-09-25T16:26:18;14.30;99.90
64939;DHT22;51453;47.738;7.420;2022-09-25T16:29:13;14.30;99.90
64939;DHT22;51453;47.738;7.420;2022-09-25T16:31:43;14.20;99.90
64939;DHT22;51453;47.738;7.420;2022-09-25T16:34:25;14.20;99.90
64939;DHT22;51453;47.738;7.420;2022-09-25T16:36:54;14.30;99.90
64939;DHT22;51453;47.738;7.420;2022-09-25T16:39:29;14.30;99.90
64939;DHT22;51453;47.738;7.420;2022-09-25T16:41:56;14.40;99.90
64939;DHT22;51453;47.738;7.420;2022-09-25T16:49:20;14.70;99.90
64939;DHT22;51453;47.738;7.420;2022-09-25T16:51:48;14.80;99.90
64939;DHT22;51453;47.738;7.420;2022-09-25T16:54:16;14.70;99.90
64939;DHT22;51453;47.738;7.420;2022-09-25T16:56:43;14.80;99.90
64939;DHT22;51453;47.738;7.420;2022-09-25T16:59:17;14.80;99.90
64939;DHT22;51453;47.738;7.420;2022-09-25T17:01:45;14.70;99.90
64939;DHT22;51453;47.738;7.420;2022-09-25T17:04:13;14.60;99.90
64939;DHT22;51453;47.738;7.420;2022-09-25T17:06:40;14.60;99.90
64939;DHT22;51453;47.738;7.420;2022-09-25T17:09:16;14.50;99.90
64939;DHT22;51453;47.738;7.420;2022-09-25T17:11:46;14.50;99.90
64939;DHT22;51453;47.738;7.420;2022-09-25T17:16:43;14.20;99.90
64939;DHT22;51453;47.738;7.420;2022-09-25T17:19:12;14.20;99.90
64939;DHT22;51453;47.738;7.420;2022-09-25T17:21:42;14.10;99.90
64939;DHT22;51453;47.738;7.420;2022-09-25T17:24:11;14.10;99.90
64939;DHT22;51453;47.738;7.420;2022-09-25T17:26:38;14.00;99.90
64939;DHT22;51453;47.738;7.420;2022-09-25T17:29:05;14.00;99.90
64939;DHT22;51453;47.738;7.420;2022-09-25T17:31:31;13.90;99.90
64939;DHT22;51453;47.738;7.420;2022-09-25T17:33:58;13.80;99.90
64939;DHT22;51453;47.738;7.420;2022-09-25T17:36:24;13.60;99.90
64939;DHT22;51453;47.738;7.420;2022-09-25T17:38:49;13.60;99.90
64939;DHT22;51453;47.738;7.420;2022-09-25T17:41:19;13.60;99.90
64939;DHT22;51453;47.738;7.420;2022-09-25T17:43:46;13.60;99.90
64939;DHT22;51453;47.738;7.420;2022-09-25T17:46:12;13.60;99.90
64939;DHT22;51453;47.738;7.420;2022-09-25T17:48:43;13.60;99.90
64939;DHT22;51453;47.738;7.420;2022-09-25T17:51:18;13.50;99.90
64939;DHT22;51453;47.738;7.420;2022-09-25T17:53:45;13.50;99.90
64939;DHT22;51453;47.738;7.420;2022-09-25T17:56:11;13.50;99.90
64939;DHT22;51453;47.738;7.420;2022-09-25T17:58:38;13.60;99.90
64939;DHT22;51453;47.738;7.420;2022-09-25T18:01:14;13.60;99.90
64939;DHT22;51453;47.738;7.420;2022-09-25T18:03:42;13.50;99.90
64939;DHT22;51453;47.738;7.420;2022-09-25T18:06:07;13.60;99.90
64939;DHT22;51453;47.738;7.420;2022-09-25T18:08:33;13.50;99.90
64939;DHT22;51453;47.738;7.420;2022-09-25T18:10:59;13.60;99.90
64939;DHT22;51453;47.738;7.420;2022-09-25T18:13:25;13.50;99.90
64939;DHT22;51453;47.738;7.420;2022-09-25T18:15:56;13.50;99.90
64939;DHT22;51453;47.738;7.420;2022-09-25T18:18:23;13.50;99.90
64939;DHT22;51453;47.738;7.420;2022-09-25T18:20:49;13.50;99.90
64939;DHT22;51453;47.738;7.420;2022-09-25T18:23:33;13.50;99.90
64939;DHT22;51453;47.738;7.420;2022-09-25T18:26:06;13.50;99.90
64939;DHT22;51453;47.738;7.420;2022-09-25T18:28:32;13.40;99.90
64939;DHT22;51453;47.738;7.420;2022-09-25T18:30:58;13.40;99.90